Time;durP1;ratioP1;P1;durP2;ratioP2;P2;SDS_P1;SDS_P2;PMS_P1;PMS_P2;Temp;Humidity;BMP_temperature;BMP_pressure;BME280_temperature;BME280_humidity;BME280_pressure;Samples;Min_cycle;Max_cycle;Signal;HPM_P1;HPM_P2
2021/06/15 04:19:10;;;;;;;12.18;7.57;;;18.80;75.10;;;;;;2041338;29;20028;-73
2021/06/15 04:22:52;;;;;;;9.20;6.93;;;19.80;69.40;;;;;;2016877;29;20021;-72
2021/06/15 08:44:41;;;;;;;7.63;4.25;;;25.80;52.50;;;;;;2039966;29;20054;-71
2021/06/15 08:45:58;;;;;;;6.28;4.28;;;25.80;52.30;;;;;;2038309;29;20063;-70
2021/06/15 08:47:36;;;;;;;8.98;4.68;;;25.80;52.40;;;;;;2040130;29;20393;-70
2021/06/15 11:59:13;;;;;;;6.22;4.60;;;27.90;46.70;;;;;;2028005;29;20456;-72
2021/06/15 12:00:18;;;;;;;5.88;4.65;;;27.90;45.80;;;;;;2036797;29;20039;-72
2021/06/15 12:01:19;;;;;;;6.75;4.20;;;27.90;46.60;;;;;;2036250;29;20473;-73
2021/06/15 12:02:20;;;;;;;6.43;4.07;;;28.10;46.70;;;;;;2039658;29;20055;-73
2021/06/15 12:03:24;;;;;;;9.38;4.07;;;28.10;46.20;;;;;;2040236;29;20158;-72
2021/06/15 12:04:25;;;;;;;6.30;4.20;;;28.20;45.70;;;;;;2040015;29;20063;-72
2021/06/15 12:05:28;;;;;;;6.50;3.97;;;28.20;46.40;;;;;;2042110;29;20055;-72
2021/06/15 12:06:29;;;;;;;6.10;4.30;;;28.30;46.10;;;;;;2041479;29;20051;-72
2021/06/15 12:07:31;;;;;;;7.18;4.13;;;28.20;46.00;;;;;;2040820;29;20028;-72
2021/06/15 12:08:34;;;;;;;7.07;4.22;;;28.30;46.00;;;;;;2039772;29;20046;-73
2021/06/15 12:09:54;;;;;;;6.82;4.32;;;28.40;45.90;;;;;;2039268;29;20094;-74
2021/06/15 12:10:55;;;;;;;7.22;4.10;;;28.60;45.00;;;;;;2040681;29;20087;-72
2021/06/15 12:11:59;;;;;;;9.07;4.75;;;28.60;44.30;;;;;;2040734;29;20122;-72
2021/06/15 12:13:06;;;;;;;9.70;4.60;;;28.60;44.40;;;;;;2040945;29;20027;-72
2021/06/15 12:14:06;;;;;;;6.47;4.20;;;28.60;43.90;;;;;;2041138;29;20035;-72
2021/06/15 12:15:07;;;;;;;6.72;4.10;;;28.70;44.00;;;;;;2032379;29;20027;-72
2021/06/15 12:16:12;;;;;;;9.27;4.40;;;28.70;44.10;;;;;;2033364;29;20064;-73
2021/06/15 12:17:13;;;;;;;5.63;4.07;;;28.80;43.90;;;;;;2040296;29;20067;-71
2021/06/15 12:18:29;;;;;;;8.45;3.85;;;28.70;43.50;;;;;;2031525;29;20499;-71
2021/06/15 12:19:37;;;;;;;5.85;4.53;;;28.90;43.70;;;;;;2034694;29;20395;-72
2021/06/15 12:20:41;;;;;;;8.63;4.00;;;28.80;43.80;;;;;;2040605;29;20070;-73
2021/06/15 12:21:43;;;;;;;6.38;3.90;;;28.70;44.20;;;;;;2040888;29;20024;-73
2021/06/15 12:22:47;;;;;;;4.15;3.63;;;28.80;44.10;;;;;;2040807;29;20035;-73
2021/06/15 12:23:50;;;;;;;7.20;4.32;;;28.90;43.30;;;;;;2032438;29;20063;-73
2021/06/15 12:24:51;;;;;;;6.57;4.05;;;29.00;42.80;;;;;;2032962;29;20043;-73
2021/06/15 12:25:54;;;;;;;6.22;3.72;;;29.10;42.60;;;;;;2032372;29;20156;-73
2021/06/15 12:27:04;;;;;;;6.40;3.97;;;29.20;42.30;;;;;;2032948;29;20063;-74
2021/06/15 12:28:14;;;;;;;6.95;4.05;;;29.40;42.20;;;;;;2031628;29;20574;-73
2021/06/15 12:29:17;;;;;;;7.32;3.63;;;29.50;42.20;;;;;;2030848;29;20032;-73
2021/06/15 12:30:18;;;;;;;5.28;3.75;;;29.50;41.60;;;;;;2041049;29;20047;-72
2021/06/15 12:31:41;;;;;;;6.28;3.78;;;29.60;40.80;;;;;;2038193;29;20098;-72
2021/06/15 12:32:46;;;;;;;6.00;3.50;;;29.70;39.50;;;;;;2040726;29;20384;-72
2021/06/15 12:33:55;;;;;;;6.25;3.80;;;29.70;39.80;;;;;;2040645;29;20070;-71
2021/06/15 12:34:55;;;;;;;6.20;4.07;;;29.60;40.20;;;;;;2041096;29;20541;-71
2021/06/15 12:36:05;;;;;;;8.57;4.25;;;29.60;41.50;;;;;;2041210;29;20031;-72
2021/06/15 12:37:05;;;;;;;6.82;4.18;;;29.40;42.10;;;;;;2032593;29;20024;-71
2021/06/15 12:38:14;;;;;;;9.05;4.30;;;29.30;42.40;;;;;;2031734;29;20515;-72
2021/06/15 12:39:24;;;;;;;6.43;4.13;;;29.10;41.90;;;;;;2037628;29;20088;-74
2021/06/15 12:40:25;;;;;;;9.18;4.97;;;29.10;42.80;;;;;;2024731;29;20040;-73
2021/06/15 12:41:26;;;;;;;5.43;4.25;;;29.00;43.50;;;;;;2024531;29;20047;-72
2021/06/15 12:42:26;;;;;;;9.15;4.30;;;28.90;43.30;;;;;;2032971;29;20047;-72
2021/06/15 12:43:28;;;;;;;6.43;4.32;;;29.00;43.80;;;;;;2024817;29;20127;-70
2021/06/15 12:44:36;;;;;;;8.75;4.57;;;28.90;43.00;;;;;;2024962;29;20041;-71
2021/06/15 12:45:39;;;;;;;7.65;4.38;;;28.80;42.60;;;;;;2033073;29;20036;-72
2021/06/15 12:46:41;;;;;;;7.63;3.92;;;28.60;42.70;;;;;;2033561;29;20395;-70
2021/06/15 12:47:43;;;;;;;6.82;4.20;;;28.70;43.10;;;;;;2033334;29;20411;-73
2021/06/15 12:48:44;;;;;;;9.02;4.32;;;28.90;44.00;;;;;;2032391;29;20075;-76
2021/06/15 12:49:53;;;;;;;6.57;4.00;;;28.90;43.00;;;;;;2033004;29;20040;-72
2021/06/15 12:51:28;;;;;;;6.80;3.80;;;28.80;42.40;;;;;;2033032;29;20076;-73
2021/06/15 12:52:40;;;;;;;6.13;4.00;;;28.90;42.60;;;;;;2001040;29;20030;-72
2021/06/15 12:53:42;;;;;;;8.82;4.35;;;29.10;43.00;;;;;;2030764;29;20075;-73
2021/06/15 12:54:45;;;;;;;6.15;3.70;;;29.10;42.00;;;;;;2024402;29;20028;-73
2021/06/15 12:55:46;;;;;;;6.97;4.30;;;29.20;42.10;;;;;;2025033;29;20056;-73
2021/06/15 12:57:05;;;;;;;12.45;4.78;;;29.40;42.60;;;;;;2032938;29;20554;-72
2021/06/15 12:58:07;;;;;;;7.88;4.80;;;29.50;43.20;;;;;;2032219;29;20063;-73
2021/06/15 12:59:15;;;;;;;11.90;4.20;;;29.50;43.00;;;;;;2032344;29;20032;-72
2021/06/15 13:00:30;;;;;;;6.47;4.68;;;29.40;43.20;;;;;;2029944;29;20028;-73
2021/06/15 13:01:36;;;;;;;6.53;4.10;;;29.10;43.00;;;;;;2026959;29;20448;-73
2021/06/15 13:02:38;;;;;;;5.97;4.10;;;29.00;43.70;;;;;;2025036;29;20056;-72
2021/06/15 13:03:39;;;;;;;6.78;4.40;;;29.00;43.50;;;;;;2024221;29;20048;-72
2021/06/15 13:04:48;;;;;;;6.15;4.38;;;29.10;43.00;;;;;;2031845;29;20040;-73
2021/06/15 13:05:51;;;;;;;8.68;4.50;;;29.10;43.40;;;;;;2040573;29;20035;-73
2021/06/15 13:06:59;;;;;;;6.53;4.18;;;29.00;44.10;;;;;;2041399;29;20668;-73
2021/06/15 13:08:01;;;;;;;8.80;4.63;;;28.80;43.10;;;;;;2034132;29;20034;-73
2021/06/15 13:09:15;;;;;;;9.40;4.50;;;28.60;43.50;;;;;;2034697;29;20040;-74
2021/06/15 13:10:19;;;;;;;6.90;4.00;;;28.50;44.40;;;;;;2022012;29;20029;-73
2021/06/15 13:11:24;;;;;;;6.15;3.85;;;28.40;44.20;;;;;;2029348;29;20036;-72
2021/06/15 13:12:28;;;;;;;7.68;4.40;;;28.50;44.00;;;;;;2037412;29;20399;-72
2021/06/15 13:13:29;;;;;;;7.30;4.25;;;28.60;43.80;;;;;;2028217;29;20053;-73
2021/06/15 13:14:43;;;;;;;7.30;3.95;;;28.60;45.00;;;;;;2021544;29;20151;-71
2021/06/15 13:15:56;;;;;;;13.50;4.50;;;28.60;45.00;;;;;;2030320;29;20079;-73
2021/06/15 13:17:28;;;;;;;9.32;4.35;;;28.60;45.40;;;;;;2021503;29;20184;-72
2021/06/15 13:19:09;;;;;;;5.38;4.20;;;28.60;44.40;;;;;;2029797;29;20437;-73
2021/06/15 13:20:12;;;;;;;7.28;4.22;;;28.60;44.30;;;;;;2029998;29;20040;-74
2021/06/15 13:21:13;;;;;;;6.40;4.25;;;28.70;44.60;;;;;;2033006;29;20108;-74
2021/06/15 13:22:17;;;;;;;6.32;4.10;;;28.70;44.50;;;;;;2025344;29;20020;-74
2021/06/15 13:23:20;;;;;;;9.95;4.88;;;28.70;44.40;;;;;;2026492;29;21049;-74
2021/06/15 13:24:29;;;;;;;8.00;4.72;;;28.70;44.40;;;;;;2040889;29;20060;-74
2021/06/15 13:25:32;;;;;;;7.22;4.65;;;28.70;44.40;;;;;;2040187;29;20488;-73
2021/06/15 13:26:32;;;;;;;9.57;4.57;;;28.70;44.20;;;;;;2040762;29;20502;-73
2021/06/15 13:27:42;;;;;;;7.13;4.40;;;28.60;44.10;;;;;;2032308;29;20024;-72
2021/06/15 13:28:58;;;;;;;4.60;4.00;;;28.70;44.60;;;;;;2033310;29;20079;-73
2021/06/15 13:30:15;;;;;;;5.35;4.20;;;28.70;44.00;;;;;;2034855;29;20494;-73
2021/06/15 13:31:23;;;;;;;5.45;4.15;;;28.80;43.70;;;;;;2037259;29;20032;-74
2021/06/15 13:32:25;;;;;;;7.28;4.05;;;28.90;43.70;;;;;;2031932;29;20429;-73
2021/06/15 13:33:27;;;;;;;7.55;4.30;;;28.90;43.70;;;;;;2032442;29;20036;-73
2021/06/15 13:34:28;;;;;;;5.40;4.47;;;29.00;43.90;;;;;;2040673;29;20062;-73
2021/06/15 13:35:29;;;;;;;8.05;4.40;;;29.00;44.60;;;;;;2040573;29;20027;-73
2021/06/15 13:36:30;;;;;;;13.27;4.63;;;29.00;44.90;;;;;;2040438;29;20024;-73
2021/06/15 13:37:34;;;;;;;6.53;4.50;;;29.00;44.90;;;;;;2040604;29;20062;-73
2021/06/15 13:38:35;;;;;;;4.72;4.13;;;29.10;45.10;;;;;;2024010;29;20535;-73
2021/06/15 13:39:44;;;;;;;6.68;4.60;;;29.10;45.40;;;;;;2024369;29;20037;-73
2021/06/15 13:40:48;;;;;;;5.63;4.45;;;29.10;45.10;;;;;;2040002;29;20036;-72
2021/06/15 13:41:58;;;;;;;7.40;4.22;;;29.20;45.40;;;;;;2032390;29;20061;-73
2021/06/15 13:43:01;;;;;;;8.43;4.38;;;29.20;45.20;;;;;;2025795;29;20039;-71
2021/06/15 13:44:02;;;;;;;5.90;4.28;;;29.10;43.90;;;;;;2032821;29;20353;-73
2021/06/15 13:45:12;;;;;;;7.18;4.38;;;29.10;44.20;;;;;;2040203;29;20090;-73
2021/06/15 13:46:15;;;;;;;7.50;4.72;;;29.00;44.60;;;;;;2032118;29;20080;-72
2021/06/15 13:47:16;;;;;;;7.85;4.63;;;28.90;44.80;;;;;;2024529;29;20405;-73
2021/06/15 13:48:16;;;;;;;5.57;4.25;;;28.80;45.30;;;;;;2031659;29;20036;-73
2021/06/15 13:49:19;;;;;;;5.93;4.85;;;28.90;45.40;;;;;;2040534;29;20475;-73
2021/06/15 13:50:20;;;;;;;7.38;4.65;;;28.90;45.40;;;;;;2032239;29;20497;-72
2021/06/15 13:51:21;;;;;;;11.38;4.75;;;28.80;45.80;;;;;;2032357;29;20036;-74
2021/06/15 13:52:23;;;;;;;6.88;5.05;;;28.70;46.50;;;;;;2039902;29;20716;-72
2021/06/15 13:53:24;;;;;;;7.45;5.15;;;28.70;45.60;;;;;;2032142;29;20071;-74
2021/06/15 13:54:30;;;;;;;10.40;5.30;;;28.60;45.50;;;;;;2032092;29;20027;-73
2021/06/15 13:55:35;;;;;;;7.30;4.80;;;28.50;45.50;;;;;;2024274;29;20033;-72
2021/06/15 13:56:43;;;;;;;6.82;4.50;;;28.50;46.00;;;;;;2016921;29;20037;-73
2021/06/15 13:57:44;;;;;;;4.85;4.22;;;28.60;46.00;;;;;;2032789;29;20040;-72
2021/06/15 13:58:45;;;;;;;7.15;4.30;;;28.60;46.00;;;;;;2039983;29;20091;-72
2021/06/15 13:59:46;;;;;;;8.93;4.85;;;28.70;46.10;;;;;;2040166;29;20035;-73
2021/06/15 14:00:47;;;;;;;8.98;4.60;;;28.60;45.50;;;;;;2040070;29;20456;-72
2021/06/15 14:01:48;;;;;;;7.22;4.72;;;28.60;46.50;;;;;;2040439;29;20031;-72
2021/06/15 14:02:49;;;;;;;8.43;4.55;;;28.50;45.20;;;;;;2031913;29;20069;-72
2021/06/15 14:03:50;;;;;;;9.18;4.95;;;28.50;45.90;;;;;;2024440;29;20099;-72
2021/06/15 14:04:50;;;;;;;11.05;4.70;;;28.50;45.80;;;;;;2031757;29;20123;-74
2021/06/15 14:05:51;;;;;;;6.15;4.07;;;28.50;45.50;;;;;;2040360;29;20031;-73
2021/06/15 14:06:51;;;;;;;10.50;4.65;;;28.60;45.50;;;;;;2031974;29;20043;-73
2021/06/15 14:07:52;;;;;;;8.48;4.85;;;28.60;45.10;;;;;;2031977;29;20036;-72
2021/06/15 14:08:53;;;;;;;8.18;4.60;;;28.60;45.30;;;;;;2039976;29;20090;-72
2021/06/15 14:09:54;;;;;;;10.43;4.50;;;28.60;45.00;;;;;;2031748;29;20499;-72
2021/06/15 14:10:55;;;;;;;6.30;4.47;;;28.70;44.30;;;;;;2024034;29;20031;-73
2021/06/15 14:11:55;;;;;;;6.35;4.70;;;28.80;44.30;;;;;;2024013;29;20029;-74
2021/06/15 14:12:56;;;;;;;6.78;4.60;;;28.90;44.10;;;;;;2031534;29;20020;-73
2021/06/15 14:13:57;;;;;;;8.65;4.72;;;28.90;44.00;;;;;;2040210;29;20094;-73
2021/06/15 14:15:02;;;;;;;5.47;4.47;;;28.80;43.90;;;;;;2040215;29;20447;-74
2021/06/15 14:16:03;;;;;;;6.75;4.93;;;28.70;44.30;;;;;;2040283;29;20022;-73
2021/06/15 14:17:04;;;;;;;7.65;4.35;;;28.90;44.00;;;;;;2031734;29;20032;-73
2021/06/15 14:18:05;;;;;;;11.80;5.10;;;29.00;44.10;;;;;;2031405;29;20107;-72
2021/06/15 14:19:05;;;;;;;9.77;4.90;;;29.00;44.90;;;;;;2040267;29;20138;-74
2021/06/15 14:20:10;;;;;;;9.55;4.45;;;28.80;44.70;;;;;;2040142;29;20187;-74
2021/06/15 14:21:10;;;;;;;7.97;4.40;;;28.80;44.90;;;;;;2039954;29;20024;-72
2021/06/15 14:22:11;;;;;;;5.88;4.50;;;28.90;45.10;;;;;;2040157;29;20063;-72
2021/06/15 14:23:11;;;;;;;6.63;4.50;;;29.00;44.90;;;;;;2040157;29;20082;-72
2021/06/15 14:24:12;;;;;;;9.00;4.70;;;29.10;43.90;;;;;;2031889;29;20426;-72
2021/06/15 14:25:16;;;;;;;5.93;4.30;;;29.10;44.00;;;;;;2023955;29;20076;-73
2021/06/15 14:26:17;;;;;;;7.55;4.75;;;29.10;43.90;;;;;;2032094;29;20067;-74
2021/06/15 14:27:20;;;;;;;6.53;4.75;;;29.10;44.10;;;;;;2040293;29;20035;-73
2021/06/15 14:28:21;;;;;;;6.82;4.45;;;29.00;44.20;;;;;;2031348;29;20032;-73
2021/06/15 14:29:21;;;;;;;6.00;4.45;;;29.00;43.80;;;;;;2037754;29;20074;-73
2021/06/15 14:30:24;;;;;;;8.95;5.30;;;29.10;44.00;;;;;;2031821;29;20118;-72
2021/06/15 14:31:24;;;;;;;9.75;4.80;;;29.10;44.70;;;;;;2031952;29;20039;-73
2021/06/15 14:32:25;;;;;;;10.30;4.80;;;29.10;45.10;;;;;;2031850;29;20043;-72
2021/06/15 14:33:26;;;;;;;10.38;5.72;;;29.20;44.30;;;;;;2032011;29;20512;-74
2021/06/15 14:34:27;;;;;;;11.95;5.10;;;29.10;44.50;;;;;;2040275;29;20106;-74
2021/06/15 14:35:28;;;;;;;9.27;5.97;;;29.10;45.20;;;;;;2040114;29;20032;-72
2021/06/15 14:36:29;;;;;;;9.27;4.95;;;29.00;45.70;;;;;;2040150;29;20144;-72
2021/06/15 14:37:29;;;;;;;7.75;5.13;;;29.00;45.70;;;;;;2031826;29;20432;-72
2021/06/15 14:38:30;;;;;;;6.97;4.88;;;29.00;46.20;;;;;;2031634;29;20044;-72
2021/06/15 14:39:30;;;;;;;7.32;4.88;;;29.00;46.40;;;;;;2040083;29;20027;-74
2021/06/15 14:40:31;;;;;;;8.52;4.88;;;29.10;45.90;;;;;;2040063;29;20432;-73
2021/06/15 14:41:32;;;;;;;11.15;4.90;;;29.10;46.20;;;;;;2040144;29;20062;-73
2021/06/15 14:42:33;;;;;;;6.10;4.60;;;29.10;46.60;;;;;;2031792;29;20032;-73
2021/06/15 14:43:34;;;;;;;8.00;4.80;;;29.00;46.70;;;;;;2031740;29;20554;-73
2021/06/15 14:44:36;;;;;;;11.27;5.40;;;29.00;47.00;;;;;;2040070;29;20118;-73
2021/06/15 14:45:38;;;;;;;5.60;4.90;;;29.00;46.30;;;;;;2040349;29;20042;-74
2021/06/15 14:46:40;;;;;;;8.98;4.82;;;29.00;46.60;;;;;;2031795;29;20111;-73
2021/06/15 14:47:40;;;;;;;6.68;4.53;;;29.00;47.00;;;;;;2031999;29;20068;-72
2021/06/15 14:48:41;;;;;;;9.95;4.88;;;29.00;46.60;;;;;;2039473;29;20039;-73
2021/06/15 14:49:42;;;;;;;5.60;4.95;;;29.10;47.00;;;;;;2031467;29;20032;-73
2021/06/15 14:50:42;;;;;;;10.32;4.88;;;29.10;46.80;;;;;;2024049;29;20032;-71
2021/06/15 14:51:43;;;;;;;9.52;4.78;;;29.10;45.40;;;;;;2031665;29;20035;-73
2021/06/15 14:52:44;;;;;;;9.00;4.90;;;29.10;45.20;;;;;;2040172;29;20024;-73
2021/06/15 14:53:45;;;;;;;9.75;4.90;;;29.00;46.10;;;;;;2031448;29;20032;-72
2021/06/15 14:54:45;;;;;;;9.23;5.07;;;28.90;46.40;;;;;;2023812;29;20643;-71
2021/06/15 14:55:46;;;;;;;7.40;4.72;;;28.90;47.00;;;;;;2031610;29;20060;-73
2021/06/15 14:56:47;;;;;;;7.30;4.90;;;28.70;47.20;;;;;;2031436;29;20514;-73
2021/06/15 14:57:48;;;;;;;5.97;4.50;;;28.70;46.30;;;;;;2041507;29;20891;-72
2021/06/15 14:58:51;;;;;;;9.65;4.25;;;28.70;46.10;;;;;;2040766;29;20483;-73
2021/06/15 14:59:52;;;;;;;10.90;5.90;;;28.80;45.50;;;;;;2035018;29;20031;-73
2021/06/15 15:00:53;;;;;;;7.90;4.93;;;28.90;46.70;;;;;;2031040;29;20612;-73
2021/06/15 15:01:54;;;;;;;10.10;4.80;;;28.80;45.90;;;;;;2033183;29;20103;-73
2021/06/15 15:02:54;;;;;;;8.60;4.85;;;28.70;46.40;;;;;;2041724;29;20489;-73
2021/06/15 15:03:55;;;;;;;10.98;4.95;;;28.50;46.80;;;;;;2041693;29;20032;-73
2021/06/15 15:04:56;;;;;;;6.60;4.45;;;28.30;47.40;;;;;;2033107;29;20032;-73
2021/06/15 15:05:57;;;;;;;7.88;4.82;;;28.30;47.80;;;;;;2025514;29;20052;-73
2021/06/15 15:06:57;;;;;;;11.95;5.00;;;28.30;48.10;;;;;;2025593;29;20039;-74
2021/06/15 15:07:58;;;;;;;9.80;4.82;;;28.30;48.40;;;;;;2032748;29;20035;-73
2021/06/15 15:08:58;;;;;;;8.40;4.72;;;28.30;47.80;;;;;;2025384;29;20519;-72
2021/06/15 15:09:59;;;;;;;6.78;4.70;;;28.30;48.10;;;;;;2033418;29;20179;-71
2021/06/15 15:11:00;;;;;;;9.02;6.40;;;28.40;48.10;;;;;;2033243;29;20380;-72
2021/06/15 15:12:00;;;;;;;6.97;4.90;;;28.50;47.60;;;;;;2025633;29;20139;-73
2021/06/15 15:13:01;;;;;;;6.18;4.60;;;28.50;47.50;;;;;;2033834;29;20030;-73
2021/06/15 15:14:02;;;;;;;8.57;4.65;;;28.50;47.50;;;;;;2041993;29;20139;-72
2021/06/15 15:15:03;;;;;;;6.93;4.53;;;28.60;48.20;;;;;;2041734;29;20034;-72
2021/06/15 15:16:04;;;;;;;7.38;4.90;;;28.60;47.80;;;;;;2033412;29;20024;-73
2021/06/15 15:17:06;;;;;;;6.80;4.20;;;28.50;48.10;;;;;;2033469;29;20091;-73
2021/06/15 15:18:06;;;;;;;7.70;4.60;;;28.60;47.40;;;;;;2032561;29;20060;-72
2021/06/15 15:19:07;;;;;;;9.40;4.80;;;28.60;47.10;;;;;;2025342;29;20028;-73
2021/06/15 15:20:09;;;;;;;7.20;4.72;;;28.60;47.30;;;;;;2025467;29;20036;-72
2021/06/15 15:21:10;;;;;;;7.43;4.35;;;28.70;47.30;;;;;;2033448;29;20114;-72
2021/06/15 15:22:14;;;;;;;7.30;4.88;;;28.70;46.90;;;;;;2033381;29;20499;-73
2021/06/15 15:23:14;;;;;;;9.18;4.85;;;28.70;46.20;;;;;;2033723;29;20107;-73
2021/06/15 15:24:15;;;;;;;6.40;4.70;;;28.60;46.70;;;;;;2041833;29;20024;-72
2021/06/15 15:25:18;;;;;;;7.65;4.63;;;28.50;46.60;;;;;;2042151;29;20218;-74
2021/06/15 15:26:18;;;;;;;5.82;4.55;;;28.50;46.60;;;;;;2033443;29;20040;-74
2021/06/15 15:27:19;;;;;;;9.23;5.80;;;28.50;47.10;;;;;;2025801;29;20450;-74
2021/06/15 15:28:20;;;;;;;12.80;5.55;;;28.50;46.60;;;;;;2032062;29;20066;-74
2021/06/15 15:29:21;;;;;;;11.18;5.78;;;28.40;46.80;;;;;;2032658;29;20066;-73
2021/06/15 15:30:22;;;;;;;9.98;5.22;;;28.40;47.00;;;;;;2030850;29;20063;-73
2021/06/15 15:31:23;;;;;;;6.30;4.60;;;28.30;47.40;;;;;;2034746;29;20603;-74
2021/06/15 15:32:24;;;;;;;11.07;5.05;;;28.30;47.10;;;;;;2033180;29;20056;-73
2021/06/15 15:33:25;;;;;;;9.85;4.75;;;28.20;47.90;;;;;;2033090;29;20480;-74
2021/06/15 15:34:25;;;;;;;7.25;4.60;;;28.20;47.70;;;;;;2033092;29;20035;-73
2021/06/15 15:35:26;;;;;;;9.10;5.22;;;28.20;48.00;;;;;;2033115;29;20496;-75
2021/06/15 15:36:27;;;;;;;12.95;5.45;;;28.20;47.60;;;;;;2041581;29;20034;-72
2021/06/15 15:37:28;;;;;;;8.55;4.70;;;28.20;48.00;;;;;;2041407;29;20477;-72
2021/06/15 15:38:28;;;;;;;11.23;5.15;;;28.30;47.60;;;;;;2040804;29;20036;-73
2021/06/15 15:39:29;;;;;;;9.73;4.68;;;28.30;47.40;;;;;;2041625;29;20035;-73
2021/06/15 15:40:31;;;;;;;7.30;4.90;;;28.30;47.50;;;;;;2041765;29;20127;-73
2021/06/15 15:41:31;;;;;;;7.63;4.90;;;28.40;46.70;;;;;;2033025;29;20091;-76
2021/06/15 15:42:33;;;;;;;6.55;4.40;;;28.30;47.00;;;;;;2033044;29;20068;-72
2021/06/15 15:43:34;;;;;;;6.28;4.95;;;28.40;47.20;;;;;;2032666;29;20812;-72
2021/06/15 15:44:35;;;;;;;8.98;4.80;;;28.40;47.30;;;;;;2032614;29;20032;-72
2021/06/15 15:45:36;;;;;;;9.30;4.65;;;28.30;47.90;;;;;;2032871;29;20032;-72
2021/06/15 15:46:37;;;;;;;6.80;4.70;;;28.40;48.30;;;;;;2025251;29;20528;-73
2021/06/15 15:47:38;;;;;;;7.43;4.65;;;28.40;47.40;;;;;;2032736;29;20035;-73
2021/06/15 15:48:39;;;;;;;8.25;5.10;;;28.50;47.30;;;;;;2040821;29;20028;-72
2021/06/15 15:49:42;;;;;;;10.02;4.88;;;28.60;46.90;;;;;;2032785;29;20507;-72
2021/06/15 15:50:43;;;;;;;6.85;4.70;;;28.50;46.10;;;;;;2033315;29;20055;-72
2021/06/15 15:51:43;;;;;;;6.50;4.55;;;28.40;46.10;;;;;;2041412;29;20042;-72
2021/06/15 15:52:44;;;;;;;6.00;4.53;;;28.50;46.30;;;;;;2041202;29;20467;-72
2021/06/15 15:53:45;;;;;;;6.45;4.72;;;28.50;46.70;;;;;;2041149;29;20046;-72
2021/06/15 15:54:45;;;;;;;7.57;5.00;;;28.50;46.90;;;;;;2040674;29;20075;-71
2021/06/15 15:55:46;;;;;;;9.52;4.95;;;28.50;46.80;;;;;;2032161;29;20036;-72
2021/06/15 15:56:47;;;;;;;5.32;4.47;;;28.60;46.60;;;;;;2024984;29;20084;-72
2021/06/15 15:57:48;;;;;;;9.02;5.32;;;28.70;46.60;;;;;;2034125;29;20475;-72
2021/06/15 15:58:50;;;;;;;8.02;4.90;;;28.70;46.60;;;;;;2034600;29;20030;-73
2021/06/15 15:59:51;;;;;;;7.78;4.78;;;28.70;46.30;;;;;;2043299;29;20469;-73
2021/06/15 16:00:51;;;;;;;7.50;4.68;;;28.80;46.30;;;;;;2037164;29;20047;-73
2021/06/15 16:01:52;;;;;;;8.70;4.60;;;28.90;45.50;;;;;;2029587;29;20209;-73
2021/06/15 16:02:53;;;;;;;7.22;4.68;;;28.70;44.70;;;;;;2027603;29;20036;-74
2021/06/15 16:03:53;;;;;;;8.63;4.90;;;28.70;44.70;;;;;;2039005;29;20056;-73
2021/06/15 16:04:54;;;;;;;8.05;4.43;;;28.90;44.80;;;;;;2047322;29;20093;-71
2021/06/15 16:05:55;;;;;;;7.25;4.43;;;28.90;45.10;;;;;;2042522;29;20028;-74
2021/06/15 16:06:56;;;;;;;10.18;5.00;;;29.00;44.70;;;;;;2041876;29;20469;-72
2021/06/15 16:07:56;;;;;;;7.40;4.70;;;29.00;44.40;;;;;;2041399;29;20094;-74
2021/06/15 16:08:57;;;;;;;13.45;8.35;;;29.10;44.70;;;;;;2040201;29;20502;-74
2021/06/15 16:09:57;;;;;;;6.97;5.18;;;29.20;44.70;;;;;;2033398;29;20024;-73
2021/06/15 16:10:59;;;;;;;8.45;4.90;;;29.20;45.20;;;;;;2033270;29;20078;-73
2021/06/15 16:12:00;;;;;;;13.13;6.05;;;29.40;44.60;;;;;;2025783;29;20028;-74
2021/06/15 16:13:01;;;;;;;6.88;4.57;;;29.50;44.20;;;;;;2033929;29;20031;-74
2021/06/15 16:14:02;;;;;;;9.77;4.80;;;29.60;44.20;;;;;;2044165;29;20020;-74
2021/06/15 16:15:05;;;;;;;7.00;4.50;;;29.70;44.70;;;;;;2043865;29;20027;-74
2021/06/15 16:16:06;;;;;;;8.52;5.18;;;29.50;43.90;;;;;;2035142;29;20024;-73
2021/06/15 16:17:07;;;;;;;7.50;4.75;;;29.30;43.90;;;;;;2034186;29;20024;-73
2021/06/15 16:18:08;;;;;;;8.70;5.38;;;29.10;44.60;;;;;;2033100;29;20031;-74
2021/06/15 16:19:09;;;;;;;7.45;5.07;;;29.00;45.40;;;;;;2033161;29;20061;-73
2021/06/15 16:20:10;;;;;;;9.90;5.50;;;29.00;46.00;;;;;;2041184;29;20035;-72
2021/06/15 16:21:11;;;;;;;17.23;5.75;;;29.00;46.20;;;;;;2032761;29;20032;-73
2021/06/15 16:22:16;;;;;;;11.57;5.30;;;29.00;46.00;;;;;;2032796;29;20127;-73
2021/06/15 16:23:17;;;;;;;8.93;5.47;;;29.00;46.20;;;;;;2041255;29;20035;-73
2021/06/15 16:24:18;;;;;;;6.88;5.10;;;28.90;45.80;;;;;;2041047;29;20627;-74
2021/06/15 16:25:18;;;;;;;6.00;5.20;;;28.90;45.70;;;;;;2041311;29;20034;-74
2021/06/15 16:26:19;;;;;;;7.88;5.40;;;28.90;45.90;;;;;;2032858;29;20044;-73
2021/06/15 16:27:20;;;;;;;8.15;5.55;;;28.90;45.80;;;;;;2032921;29;20155;-73
2021/06/15 16:28:21;;;;;;;9.63;5.60;;;28.80;46.00;;;;;;2040910;29;20225;-73
2021/06/15 16:29:23;;;;;;;6.25;5.30;;;28.60;46.20;;;;;;2041473;29;20043;-73
2021/06/15 16:30:24;;;;;;;9.48;5.63;;;28.50;46.50;;;;;;2041546;29;20353;-73
2021/06/15 16:31:25;;;;;;;7.75;5.70;;;28.50;46.40;;;;;;2025136;29;20041;-72
2021/06/15 16:32:26;;;;;;;9.20;5.75;;;28.40;46.60;;;;;;2025333;29;20043;-74
2021/06/15 16:33:27;;;;;;;11.82;6.47;;;28.40;46.60;;;;;;2041437;29;20068;-74
2021/06/15 16:34:28;;;;;;;8.70;5.70;;;28.30;46.70;;;;;;2024976;29;20068;-74
2021/06/15 16:35:28;;;;;;;7.00;5.68;;;28.20;46.80;;;;;;2017756;29;20112;-74
2021/06/15 16:36:29;;;;;;;7.75;5.38;;;28.10;47.10;;;;;;2033211;29;20046;-74
2021/06/15 16:37:30;;;;;;;7.68;5.68;;;28.20;47.40;;;;;;2032728;29;20075;-73
2021/06/15 16:38:30;;;;;;;6.38;5.25;;;28.20;47.10;;;;;;2032448;29;20036;-73
2021/06/15 16:39:33;;;;;;;7.70;5.10;;;28.20;47.20;;;;;;2033461;29;20066;-75
2021/06/15 16:40:33;;;;;;;7.35;5.55;;;28.20;47.20;;;;;;2032760;29;20024;-73
2021/06/15 16:41:39;;;;;;;7.65;5.60;;;28.20;47.10;;;;;;2024916;29;20031;-73
2021/06/15 16:42:41;;;;;;;6.15;5.50;;;28.20;46.90;;;;;;2033384;29;20040;-74
2021/06/15 16:43:42;;;;;;;6.60;5.43;;;28.10;47.00;;;;;;2041321;29;20027;-74
2021/06/15 16:44:42;;;;;;;5.85;4.90;;;28.20;47.00;;;;;;2041299;29;20060;-73
2021/06/15 16:45:43;;;;;;;5.53;4.78;;;28.20;47.00;;;;;;2032940;29;20032;-75
2021/06/15 16:46:44;;;;;;;11.80;6.05;;;28.20;47.20;;;;;;2025362;29;20152;-74
2021/06/15 16:47:44;;;;;;;10.15;5.75;;;28.20;47.00;;;;;;2025001;29;20029;-75
2021/06/15 16:48:46;;;;;;;7.78;5.13;;;28.00;47.00;;;;;;2025128;29;20028;-74
2021/06/15 16:49:47;;;;;;;8.35;6.00;;;27.90;47.40;;;;;;2034245;29;20035;-74
2021/06/15 16:50:48;;;;;;;10.45;5.97;;;27.90;47.40;;;;;;2043111;29;20054;-75
2021/06/15 16:51:52;;;;;;;6.10;5.50;;;27.70;47.80;;;;;;2034336;29;20396;-76
2021/06/15 16:52:54;;;;;;;8.40;6.25;;;27.70;48.00;;;;;;2027067;29;20718;-74
2021/06/15 16:53:54;;;;;;;11.38;6.03;;;27.70;48.20;;;;;;2034584;29;20507;-74
2021/06/15 16:54:55;;;;;;;7.00;5.60;;;27.70;48.20;;;;;;2035363;29;20028;-74
2021/06/15 16:55:55;;;;;;;8.02;5.57;;;27.70;48.20;;;;;;2035269;29;20048;-74
2021/06/15 16:56:56;;;;;;;9.10;5.72;;;27.70;48.10;;;;;;2027140;29;20029;-74
2021/06/15 16:57:57;;;;;;;7.22;6.18;;;27.70;48.10;;;;;;2035678;29;20032;-74
2021/06/15 16:58:58;;;;;;;8.02;5.65;;;27.70;48.00;;;;;;2044061;29;20031;-74
2021/06/15 16:59:58;;;;;;;6.93;5.25;;;27.60;47.80;;;;;;2034684;29;20030;-74
2021/06/15 17:00:59;;;;;;;16.45;6.10;;;27.50;48.00;;;;;;2030115;29;20064;-74
2021/06/15 17:02:00;;;;;;;6.18;5.57;;;27.50;48.30;;;;;;2043797;29;20090;-73
2021/06/15 17:03:01;;;;;;;7.88;5.75;;;27.50;48.30;;;;;;2043275;29;20027;-74
2021/06/15 17:04:02;;;;;;;7.15;5.80;;;27.50;48.30;;;;;;2034194;29;20024;-74
2021/06/15 17:05:05;;;;;;;6.78;5.70;;;27.50;48.30;;;;;;2033395;29;20094;-74
2021/06/15 17:06:06;;;;;;;7.07;6.38;;;27.50;48.40;;;;;;2041242;29;20040;-73
2021/06/15 17:07:06;;;;;;;8.57;6.13;;;27.40;48.00;;;;;;2041205;29;20473;-74
2021/06/15 17:08:07;;;;;;;8.52;6.63;;;27.50;48.20;;;;;;2032252;29;20527;-73
2021/06/15 17:09:07;;;;;;;11.52;6.80;;;27.30;48.30;;;;;;2024991;29;20035;-74
2021/06/15 17:10:12;;;;;;;12.50;6.75;;;27.30;48.40;;;;;;2032634;29;20044;-74
2021/06/15 17:11:13;;;;;;;11.55;6.68;;;27.10;48.90;;;;;;2032519;29;20032;-74
2021/06/15 17:12:14;;;;;;;9.52;6.70;;;27.00;49.20;;;;;;2032270;29;20055;-73
2021/06/15 17:13:14;;;;;;;10.68;6.47;;;26.90;49.60;;;;;;2032184;29;20665;-74
2021/06/15 17:14:15;;;;;;;7.45;6.13;;;26.90;49.80;;;;;;2032321;29;20119;-73
2021/06/15 17:15:18;;;;;;;12.10;6.65;;;26.90;50.00;;;;;;2032125;29;20043;-74
2021/06/15 17:16:19;;;;;;;8.10;6.38;;;26.90;50.10;;;;;;2040520;29;20040;-74
2021/06/15 17:17:19;;;;;;;8.40;6.30;;;26.80;50.00;;;;;;2039839;29;20062;-73
2021/06/15 17:18:20;;;;;;;9.25;6.90;;;26.90;50.20;;;;;;2039679;29;20035;-75
2021/06/15 17:19:21;;;;;;;8.85;6.30;;;27.00;50.30;;;;;;2040651;29;20047;-74